Timeline UpdatesTrip UpdatesNews PostsPvt Posts♥♥Travel TipsAdmin PostsConv PostsFollowed PostsChat RequestsBlog PostsPNR Posts

Disclaimer
Search
 
 
Sun Dec 21, 2014 02:20:55 ISTHomeTrainsΣChainsAtlasPNRForumGalleryNewsFAQTripsMembersLoginFeedback
No Recent News for this Train
Other Trains in the News **new
Latest...
.
Thu Apr 24, 2014 (08:49PM)
⇐ Return Journey: Train# 13006

13005/Howrah - Amritsar (Punjab) Mail

Time-Table HAS CHANGED.
Sep 01 2014 (11:37PM)
Change Departure Station:
Change Arrival Station:
Post a Train Travel TipPost a Train Travel Tip **new
Post a Comment/Question/Picture/VideoPost a Comment/Question/Picture/Video
Pantry/Catering
✓ Pantry Car Avbl
✓ Catering Avbl
Tea: Rs 7; Samosa: Rs 15/pair.
RSA - Rake Sharing
No RSA.
Rake/Coach Composition
LOCO-SLR-GS-GS-S1-S2-S3-S4-S5-S6-S7-S8-S9-S10-PC-B1-B2-B3-A1-HA1-GS-MILITARY-SLR(Ladies)
Loco
HWH/MGS WAP-4 (HWH-MGS) SGUJ WDP-4B (MGS-LKO) GZB WAP-4/5 (LKO-ASR)
News    PNR    Forum    Time-Table    Availability    Fare Chart    Map    Arr/Dep History    Trips    Gallery    ΣChains    X/O    Timeline    
Travel Time: 12h 57m    20 halts    Distance: 743 km    Avg Speed: 57 km/hr
Type: Mail/Express
Zone: ER/Eastern
Departs @ 19:10 (Avg 38m late)
Platform# 8
SMTWTFS
Kolkata Howrah Junction/HWH 
Arrives @ 08:07 +1 night (Avg 55m late)
Platform# 2
SMTWTFS
Mughal Sarai Junction/MGS 

20 halts. 176 intermediate Stations between Kolkata Howrah Junction and Mughal Sarai Junction

Show ALL intermediate Stations  Show Old Time-Table

#TrkCodeStation NameX/OArrivesAvgDepartsAvgHaltPFDay#KmSpeedElevZoneAddress
1/==/HWHKolkata Howrah Junction (23)»  -19:10+38810.08610mERHowrah 711101, West Bengal
2/==/BWNBarddhaman Junction (8)XO  20:16+5020:21+495m2194.47634mERDist - Barddhaman, West Bengal
3/==/DGRDurgapur (5)XO  21:11+5621:14+553m31157.99171mERDurgapur, West Bengal
4/==/RNGRaniGanj (4)  21:30+5821:31+591m--1182.26092mERRaniganj, West Bengal
5/==/ASNAsansol Junction (7)X  21:49+5821:54+595m31200.463113mERDist - Bardhaman, West Bengal
6/==/CRJChittaranjan (3)X  22:17 22:18+1:0522:19+1:052 1m31225.587182mERMihijam, Jharkhand
7/==/MDPMadhupur Junction (4)X  22:58+1:1123:02+1:104m11281.973254mER06432-224478, Jharkhand
8/==/JSMEJasidih Junction (5)X  23:26+1:0423:30+1:044m--1310.935271mERJasidih, Jharkhand
9/==/JAJJhajha (4)X  00:45+4500:50+465m--2355.086143mECRJhajha, Bihar
10/==/KIULKiul Junction (5)  01:27+5801:32+575m--2408.35753mECRDist. Lakhisarai, Bihar
11/==/MKAMokama Junction (4)  02:08+1:0602:12+1:054m--2442.57348mECRPatna, Bihar
12/==/BKPBakhtiyarpur Junction (5)  02:48+1:0902:50+1:092m--2486.45851mECRPatna, Bihar
13/==/PNCPatna Saheb (3)  03:22 03:27+1:1703:24 03:29+1:192m--2521.91459mECRPatna 800008, Bihar
14/==/PNBEPatna Junction (10)X  04:10+1:0304:20+1:0410m62531.83857mECRPatna 800001, Bihar
15/==/DNRDanapur (5)X  04:35+1:1704:37+1:172m--2541.18258mECRKhagaul, Bihar
16/==/ARAAra Junction (3)  05:06+1:1705:11+1:155m12580.710163mECRDistt: Bhojpur Ph 06182-233411, Bihar
17/==/DUREDumraon (3)  05:42+1:1505:43+1:171m22632.86170mECRDumraon, Bihar
18/==/BXRBuxar (3)X  05:59+1:1906:03+1:084m22649.26767mECRBuxar, Bihar
19/==/GMRGahmar (2)  06:21+1:1106:22+1:121m--2669.36968mECRDistt: Ghazipur, Uttar Pradesh
20/==/DLNDildarnagar Junction (2)X  06:36+1:1106:38+1:112m22685.49072mECRDildarnagar, Uttar Pradesh
21/==/ZNAZamania (2)X  06:48 06:47+1:1606:49+1:161 2m12698.93477mECRGhazipur, Uttar Pradesh
22/==/MGSMughal Sarai Junction (8)•X  08:07+5508:27+5820m22743.12483mECRDistt: Chandauli Pin 232101, Uttar Pradesh
23/==/KEIKashi (3)X  08:55+1:0208:56+551m12754.12085mNRVaranasi, Uttar Pradesh
24/==%BSBVaranasi Junction (9)  09:12+5509:27+5415m82759.47282mNRVaranasi 221002, Uttar Pradesh
25%--%BOYBhadohi (2)  10:04+1:1010:05+1:111m--2803.96590mNRUttar Pradesh 221401, Uttar Pradesh
26%--|JNHJanghai Junction (3)  10:33+1:0410:34+1:061m--2834.35992mNRUttar Pradesh 212401, Uttar Pradesh
27|--|BSEBadshahpur (2)  10:51+1:0710:52+1:081m--2851.16693mNRMungra Badshahpur, Uttar Pradesh
28|--|PBHPratapgarh Junction (3)X  11:25+1:0811:30+1:095m22887.57297mNRPratapgarh, Uttar Pradesh
29|-=!AMEAmethi (2)  11:59+1:1612:00+1:191m--2922.553107mNRAmethi., Uttar Pradesh
30!==!GNGGauriGanj (2)  12:15+1:2112:16+1:221m--2935.860110mNRSH 34, Uttar Pradesh
31!==!JAISJais (2)X  12:34+1:2512:36+1:252m--2953.851108mNRRae Bareli, Uttar Pradesh
32!==!RBLRae Bareli Junction (4)X  13:10+1:2113:15+1:215m--2982.663116mNRRaebareli, Uttar Pradesh
33!==!BCNBachhrawan (2)X  13:45 13:44+1:2213:47 13:46+1:222m--21013.230124mNRLucknow, Uttar Pradesh
34/==/LKOLucknow Charbagh NR (9)XO  15:20+5915:45+5525m621060.563124mNRLucknow 226004, Uttar Pradesh
35/==/BLMBalamau Junction (4)  16:51+1:0616:53+1:062m--21129.373139mNRBalamau, Uttar Pradesh
36/==/HRIHardoi (5)  17:20+1:0617:23+1:073m121162.363146mNRHardoi, Uttar Pradesh
37/==/ROZARoza Junction (4)X  18:16+1:0118:18+1:022m--21217.937156mNRShahjahanpur, Uttar Pradesh
38/==/SPNShahjahanpur Junction (5)X  18:30+1:0118:35+1:015m--21225.277156mNRShahjahanpur, Uttar Pradesh
39/==/BEBareilly Junction (4)X  19:32 19:30+1:1219:37 19:35+1:135m221295.771174mNRBareilly, Uttar Pradesh
40/==/RMURampur Junction (3)X  20:17 20:28+1:1820:18 20:33+1:201 5m--21358.839190mNRRampur, Uttar Pradesh
41/==/MBMoradabad Junction (7)X  21:15+1:2121:25+1:2110m221386.065201mNRMoradabad, Uttar Pradesh
42/==/DPRDhampur  22:20+1:2122:22+1:212m--21445.859236mNRDhampur, Uttar Pradesh
43/==/NGGNagina (3)O  22:40 22:39+1:2222:42 22:40+1:232 1m--21462.534247mNRNagina, Uttar Pradesh
44/==/NBDNajibabad Junction (3)X  23:20+1:0823:25+1:085m221485.068269mNRNajibabad, Uttar Pradesh
45/==/LRJLaksar Junction (4)  00:02+1:2200:07+1:215m231526.963238mNRLaksar, Uttarakhand
46/==/RKRoorkee (3)  00:21 00:24+1:2200:26 00:25+1:255 1m331544.742264mNRRoorkee - 247667, Uttarakhand
47/==/SRESaharanpur Junction (6)XO  01:15+1:2701:25+1:3010m--31579.462276mNRSaharanpur, Uttar Pradesh
48/==/JUDYamunanagar-Jagadhri (3)  01:54+1:3601:55+1:371m331609.551275mNRYamunanagar, Haryana
49/==/UMBAmbala Cantt. Junction (7)XO  02:55+1:3103:15+1:2620m231660.556278mNRAmbala 133001, Haryana
50/==/RPJRajpura Junction (3)X  03:45+1:2803:47+1:292m131688.648272mNRNH-1., Punjab
51/==/LDHLudhiana Junction (7)X  05:35+1:1905:45+1:4510m331774.233246mNRLudhiana 141001, Punjab
52/==/PHRPhillaur Junction (3)X  06:09+1:4006:11+1:402m231787.275246mNRPhillaur, Punjab
53/==/PGWPhagwara Junction (3)X  06:29+1:3306:31+1:332m231809.870245mNRPhagwara, Punjab
54/==/JRCJalandhar Cantt. Junction (3)X  06:45+1:3406:47+1:352m131826.197239mNRNear Rama Mandi, Punjab
55/==/JUCJalandhar City Junction (5)X  06:50+1:4507:00+1:4310m131830.949239mNRJalandhar 144001, Punjab
56/==/BEASBeas Junction (2)X  07:44+1:2507:46+1:252m131867.037238mNRBeas, Punjab
57/==/ASRAmritsar Junction (5)  08:55+55-331910.1-233mNRAmritsar 143002, Punjab
Scroll to Top
Scroll to Bottom


Go to Mobile site